AAL82 KJFK-EGPH
Flight info
| Callsign | AAL82 |
|---|---|
| Flight time | N/A |
| Altitude | 35000 |
| Route | BETTE DCT ACK DCT TUSKY N501B ALLRY/M079F350 DCT 51N050W 53N040W 54N030W 54N020W DCT MALOT DCT GISTI/N0452F350 DCT MOLAK DCT MAC N562 TRN DCT TLA TUNSO1E |
| Aircraft | A21N/M-SDE3FGHIRWY/LB1 |
Departure
| Time | 2026-05-09 03:35 |
|---|---|
| Airport | John F. Kennedy International Airport (KJFK) |
Arrival
| Time | N/A |
|---|---|
| Airport | Edinburgh Airport (EGPH) |
| Time | Latitude | Longitude | Altitude | Speed | Heading |
|---|---|---|---|---|---|
| 2026-05-09 03:17 | 40.65020 | -73.79137 | 17 ft | 0 kts | 345° |
| 2026-05-09 03:22 | 40.65016 | -73.79137 | 17 ft | 2 kts | 345° |
| 2026-05-09 03:22 | 40.65002 | -73.79131 | 17 ft | 2 kts | 345° |
| 2026-05-09 03:22 | 40.64988 | -73.79127 | 17 ft | 1 kts | 345° |
| 2026-05-09 03:22 | 40.64978 | -73.79122 | 17 ft | 2 kts | 323° |
| 2026-05-09 03:23 | 40.64968 | -73.79107 | 17 ft | 2 kts | 294° |
| 2026-05-09 03:23 | 40.64965 | -73.79089 | 17 ft | 1 kts | 266° |
| 2026-05-09 03:23 | 40.64966 | -73.79080 | 17 ft | 1 kts | 258° |
| 2026-05-09 03:23 | 40.64966 | -73.79077 | 17 ft | 0 kts | 261° |
| 2026-05-09 03:25 | 40.64963 | -73.79097 | 17 ft | 5 kts | 254° |
| 2026-05-09 03:25 | 40.64948 | -73.79141 | 17 ft | 10 kts | 241° |
| 2026-05-09 03:25 | 40.64909 | -73.79234 | 17 ft | 12 kts | 240° |
| 2026-05-09 03:25 | 40.64852 | -73.79366 | 17 ft | 12 kts | 240° |
| 2026-05-09 03:26 | 40.64823 | -73.79434 | 17 ft | 13 kts | 240° |
| 2026-05-09 03:26 | 40.64778 | -73.79539 | 17 ft | 13 kts | 241° |
| 2026-05-09 03:26 | 40.64715 | -73.79618 | 17 ft | 13 kts | 173° |
| 2026-05-09 03:26 | 40.64634 | -73.79554 | 17 ft | 14 kts | 146° |
| 2026-05-09 03:27 | 40.64539 | -73.79508 | 17 ft | 15 kts | 173° |
| 2026-05-09 03:27 | 40.64423 | -73.79494 | 17 ft | 17 kts | 176° |
| 2026-05-09 03:27 | 40.64299 | -73.79496 | 16 ft | 17 kts | 182° |
| 2026-05-09 03:27 | 40.64137 | -73.79506 | 16 ft | 17 kts | 181° |
| 2026-05-09 03:28 | 40.64065 | -73.79471 | 16 ft | 16 kts | 137° |
| 2026-05-09 03:28 | 40.63999 | -73.79340 | 16 ft | 18 kts | 121° |
| 2026-05-09 03:28 | 40.63929 | -73.79188 | 16 ft | 20 kts | 120° |
| 2026-05-09 03:28 | 40.63859 | -73.79032 | 16 ft | 19 kts | 121° |
| 2026-05-09 03:29 | 40.63791 | -73.78884 | 16 ft | 18 kts | 121° |
| 2026-05-09 03:29 | 40.63726 | -73.78740 | 16 ft | 18 kts | 120° |
| 2026-05-09 03:29 | 40.63658 | -73.78589 | 15 ft | 20 kts | 120° |
| 2026-05-09 03:29 | 40.63583 | -73.78423 | 15 ft | 21 kts | 121° |
| 2026-05-09 03:30 | 40.63484 | -73.78205 | 15 ft | 20 kts | 121° |
| 2026-05-09 03:30 | 40.63414 | -73.78050 | 15 ft | 19 kts | 118° |
| 2026-05-09 03:30 | 40.63372 | -73.77949 | 15 ft | 18 kts | 119° |
| 2026-05-09 03:30 | 40.63306 | -73.77801 | 15 ft | 18 kts | 120° |
| 2026-05-09 03:31 | 40.63243 | -73.77660 | 15 ft | 17 kts | 121° |
| 2026-05-09 03:31 | 40.63180 | -73.77523 | 15 ft | 17 kts | 121° |
| 2026-05-09 03:31 | 40.63119 | -73.77389 | 15 ft | 16 kts | 121° |
| 2026-05-09 03:31 | 40.63060 | -73.77258 | 15 ft | 16 kts | 121° |
| 2026-05-09 03:32 | 40.63002 | -73.77131 | 14 ft | 13 kts | 121° |
| 2026-05-09 03:32 | 40.62958 | -73.77080 | 14 ft | 7 kts | 188° |
| 2026-05-09 03:32 | 40.62908 | -73.77117 | 14 ft | 7 kts | 211° |
| 2026-05-09 03:32 | 40.62897 | -73.77125 | 14 ft | 0 kts | 211° |
| 2026-05-09 03:33 | 40.62888 | -73.77132 | 14 ft | 4 kts | 210° |
| 2026-05-09 03:33 | 40.62843 | -73.77168 | 14 ft | 8 kts | 210° |
| 2026-05-09 03:33 | 40.62825 | -73.77234 | 14 ft | 9 kts | 297° |
| 2026-05-09 03:34 | 40.62905 | -73.77410 | 15 ft | 52 kts | 301° |
| 2026-05-09 03:34 | 40.63213 | -73.78090 | 15 ft | 119 kts | 301° |
| 2026-05-09 03:34 | 40.63739 | -73.79248 | 17 ft | 174 kts | 300° |
| 2026-05-09 03:34 | 40.64400 | -73.80701 | 439 ft | 188 kts | 300° |
| 2026-05-09 03:35 | 40.64889 | -73.82827 | 1429 ft | 186 kts | 265° |
| 2026-05-09 03:35 | 40.64720 | -73.83903 | 1973 ft | 181 kts | 249° |
| 2026-05-09 03:35 | 40.64057 | -73.85247 | 2672 ft | 180 kts | 227° |
| 2026-05-09 03:35 | 40.62692 | -73.86678 | 3281 ft | 200 kts | 208° |
| 2026-05-09 03:36 | 40.61754 | -73.86905 | 3533 ft | 217 kts | 179° |
| 2026-05-09 03:36 | 40.60327 | -73.86071 | 3829 ft | 247 kts | 137° |
| 2026-05-09 03:36 | 40.59467 | -73.84024 | 4214 ft | 271 kts | 102° |
| 2026-05-09 03:36 | 40.59350 | -73.81479 | 4779 ft | 284 kts | 89° |
| 2026-05-09 03:37 | 40.59408 | -73.78841 | 5483 ft | 291 kts | 89° |
| 2026-05-09 03:37 | 40.59434 | -73.76192 | 6236 ft | 295 kts | 90° |
| 2026-05-09 03:37 | 40.59406 | -73.73473 | 6939 ft | 301 kts | 92° |
| 2026-05-09 03:37 | 40.59332 | -73.70702 | 7598 ft | 308 kts | 92° |
| 2026-05-09 03:38 | 40.59227 | -73.67905 | 8315 ft | 312 kts | 93° |
| 2026-05-09 03:38 | 40.59104 | -73.65049 | 9005 ft | 317 kts | 92° |
| 2026-05-09 03:38 | 40.58971 | -73.62144 | 9676 ft | 322 kts | 92° |
| 2026-05-09 03:38 | 40.58833 | -73.59220 | 10313 ft | 327 kts | 93° |
| 2026-05-09 03:39 | 40.58686 | -73.56147 | 10716 ft | 342 kts | 92° |
| 2026-05-09 03:39 | 40.58538 | -73.52998 | 11019 ft | 359 kts | 92° |
| 2026-05-09 03:39 | 40.58376 | -73.49638 | 11354 ft | 374 kts | 92° |
| 2026-05-09 03:39 | 40.58206 | -73.46179 | 11878 ft | 383 kts | 92° |
| 2026-05-09 03:40 | 40.58036 | -73.42718 | 12518 ft | 387 kts | 92° |
| 2026-05-09 03:40 | 40.57859 | -73.39142 | 13160 ft | 391 kts | 92° |
| 2026-05-09 03:40 | 40.57681 | -73.35614 | 13784 ft | 394 kts | 91° |
| 2026-05-09 03:40 | 40.57501 | -73.31987 | 14417 ft | 397 kts | 92° |
| 2026-05-09 03:41 | 40.57320 | -73.28329 | 14978 ft | 402 kts | 92° |